Hot Springs, Arkansas
Current Conditions -  °F | °C
As of 1:53 PM on Friday 28 Nov 2014 (Local Time) from KHOT Reporting Station
Clear Clear  
Wind Chill: 58°   Ceiling: Unl
Heat Index: 58°   Visibility: 10mi
Dew Point: 35°   Wind: 10mph
Humidity: 42%   Direction: 210°SSW
Pressure: 30.14"   Gusts: NA
Location:  34.51°N, 93.05°W
Report Text: KHOT 281953Z AUTO 21009KT 10SM CLR 14/02 A3014 RMK AO2 SLP208 T01440017
Loading
Personal Weather Stations






























Interactive Weather Map New forecast layout! Learn more

10-Day Weather Forecast

Advertisements
Track Severe Weather on mobile